Time;durP1;ratioP1;P1;durP2;ratioP2;P2;SDS_P1;SDS_P2;PMS_P1;PMS_P2;Temp;Humidity;BMP_temperature;BMP_pressure;BME280_temperature;BME280_humidity;BME280_pressure;Samples;Min_cycle;Max_cycle;Signal;HPM_P1;HPM_P2
2022/08/23 00:00:29;;;;;;;;;6.33;4.00;;;;;;;;5100313;27;45355;-81
2022/08/23 00:02:55;;;;;;;;;4.00;4.00;;;;;;;;5100595;27;45357;-80
2022/08/23 00:05:21;;;;;;;;;4.33;3.00;;;;;;;;5089571;27;45489;-81
2022/08/23 00:07:46;;;;;;;;;3.67;3.67;;;;;;;;5100126;27;45468;-82
2022/08/23 00:10:14;;;;;;;;;3.67;3.67;;;;;;;;5100178;27;46401;-82
2022/08/23 00:12:40;;;;;;;;;7.67;4.67;;;;;;;;5100287;27;45450;-80
2022/08/23 00:15:06;;;;;;;;;6.00;5.00;;;;;;;;5100415;27;45318;-81
2022/08/23 00:17:32;;;;;;;;;5.33;4.00;;;;;;;;5100042;27;45302;-81
2022/08/23 00:19:57;;;;;;;;;7.00;5.00;;;;;;;;5099990;27;46369;-81
2022/08/23 00:22:22;;;;;;;;;8.67;5.00;;;;;;;;5099221;27;45232;-81
2022/08/23 00:24:48;;;;;;;;;7.67;5.67;;;;;;;;5079614;28;45175;-81
2022/08/23 00:27:15;;;;;;;;;9.00;5.00;;;;;;;;5079868;28;45161;-83
2022/08/23 00:29:51;;;;;;;;;4.00;4.00;;;;;;;;5079325;28;47338;-83
2022/08/23 00:32:32;;;;;;;;;6.33;5.00;;;;;;;;5079627;28;45421;-82
2022/08/23 00:34:58;;;;;;;;;9.00;7.67;;;;;;;;5085549;27;45308;-82
2022/08/23 00:37:24;;;;;;;;;6.33;4.33;;;;;;;;5100773;27;45347;-83
2022/08/23 00:39:49;;;;;;;;;5.67;5.67;;;;;;;;5098779;27;46731;-83
2022/08/23 00:48:38;;;;;;;;;8.67;6.00;;;;;;;;5035155;28;45414;-82
2022/08/23 00:51:07;;;;;;;;;7.00;6.33;;;;;;;;5035789;28;46257;-81
2022/08/23 00:53:33;;;;;;;;;6.00;5.00;;;;;;;;5034739;28;45440;-81
2022/08/23 00:56:02;;;;;;;;;7.33;7.33;;;;;;;;5035944;28;45512;-81
2022/08/23 00:58:27;;;;;;;;;10.00;6.67;;;;;;;;5034538;28;45347;-80
2022/08/23 01:00:54;;;;;;;;;5.67;5.00;;;;;;;;5036788;28;46280;-81
2022/08/23 01:03:21;;;;;;;;;4.00;4.00;;;;;;;;5036360;28;45460;-81
2022/08/23 01:05:59;;;;;;;;;12.00;7.00;;;;;;;;5035276;28;45495;-81
2022/08/23 01:08:25;;;;;;;;;11.00;8.00;;;;;;;;5036456;28;45356;-81
2022/08/23 01:10:55;;;;;;;;;9.33;7.00;;;;;;;;5035109;28;46302;-82
2022/08/23 01:13:23;;;;;;;;;6.67;5.00;;;;;;;;5036109;28;45485;-80
2022/08/23 01:15:54;;;;;;;;;4.00;3.67;;;;;;;;5035131;28;45527;-80
2022/08/23 01:18:21;;;;;;;;;9.00;6.00;;;;;;;;5038937;28;45344;-79
2022/08/23 01:21:05;;;;;;;;;7.00;5.67;;;;;;;;5097728;27;46557;-80
2022/08/23 01:23:35;;;;;;;;;8.67;6.67;;;;;;;;5098192;27;45449;-81
2022/08/23 01:26:00;;;;;;;;;10.33;9.00;;;;;;;;5099096;27;45409;-81
2022/08/23 01:28:25;;;;;;;;;8.67;7.33;;;;;;;;5099224;27;45264;-82
2022/08/23 01:30:51;;;;;;;;;8.33;6.67;;;;;;;;5098903;27;45478;-81
2022/08/23 01:33:16;;;;;;;;;8.00;8.00;;;;;;;;5099130;27;45447;-81
2022/08/23 01:35:44;;;;;;;;;9.00;6.67;;;;;;;;5098955;27;45464;-81
2022/08/23 01:38:10;;;;;;;;;12.00;10.00;;;;;;;;5099176;27;45306;-81
2022/08/23 01:40:36;;;;;;;;;8.00;7.33;;;;;;;;5097493;27;46719;-80
2022/08/23 01:43:01;;;;;;;;;11.00;8.00;;;;;;;;5098760;27;45233;-80
2022/08/23 01:45:27;;;;;;;;;12.33;8.67;;;;;;;;5098871;27;45336;-81
2022/08/23 01:47:52;;;;;;;;;11.00;9.00;;;;;;;;5099033;27;45483;-81
2022/08/23 01:50:17;;;;;;;;;10.00;7.00;;;;;;;;5098833;27;46302;-79
2022/08/23 01:52:43;;;;;;;;;10.33;8.67;;;;;;;;5098674;27;45318;-80
2022/08/23 01:55:08;;;;;;;;;10.33;8.00;;;;;;;;5098590;27;45263;-79
2022/08/23 01:57:34;;;;;;;;;5.67;5.67;;;;;;;;5097923;27;45440;-80
2022/08/23 02:00:00;;;;;;;;;10.00;8.00;;;;;;;;5098384;27;45449;-80
2022/08/23 02:02:25;;;;;;;;;7.33;7.00;;;;;;;;5098625;27;45417;-80
2022/08/23 02:04:51;;;;;;;;;7.33;7.33;;;;;;;;5098576;27;45316;-80
2022/08/23 02:07:16;;;;;;;;;12.67;8.00;;;;;;;;5098626;27;45467;-80
2022/08/23 02:09:42;;;;;;;;;7.33;7.33;;;;;;;;5098342;27;46006;-80
2022/08/23 02:12:07;;;;;;;;;6.33;5.67;;;;;;;;5098228;27;45330;-81
2022/08/23 02:14:33;;;;;;;;;9.00;9.00;;;;;;;;5097608;27;45318;-81
2022/08/23 02:16:58;;;;;;;;;9.33;8.33;;;;;;;;5098372;27;45295;-79
2022/08/23 02:19:24;;;;;;;;;9.00;7.00;;;;;;;;5097471;27;47415;-78
2022/08/23 02:21:49;;;;;;;;;7.33;7.33;;;;;;;;5098308;27;45764;-80
2022/08/23 02:24:16;;;;;;;;;11.00;9.33;;;;;;;;5098338;27;45363;-78
2022/08/23 02:26:44;;;;;;;;;8.33;8.00;;;;;;;;5098534;27;45318;-80
2022/08/23 02:29:10;;;;;;;;;15.67;9.67;;;;;;;;5097875;27;47114;-80
2022/08/23 02:31:35;;;;;;;;;9.00;6.67;;;;;;;;5097568;27;45323;-79
2022/08/23 02:34:01;;;;;;;;;9.33;7.00;;;;;;;;5097922;27;45299;-79
2022/08/23 02:36:27;;;;;;;;;8.00;7.33;;;;;;;;5098437;27;45278;-79
2022/08/23 02:38:53;;;;;;;;;8.00;6.67;;;;;;;;5079658;27;47598;-81
2022/08/23 02:41:18;;;;;;;;;7.67;7.00;;;;;;;;5097540;27;45385;-80
2022/08/23 02:43:44;;;;;;;;;10.00;8.67;;;;;;;;5098175;27;45505;-81
2022/08/23 02:46:09;;;;;;;;;8.00;7.00;;;;;;;;5098203;27;45369;-81
2022/08/23 02:48:35;;;;;;;;;10.00;8.00;;;;;;;;5092751;27;45363;-81
2022/08/23 02:51:02;;;;;;;;;10.00;8.00;;;;;;;;5077691;28;45456;-81
2022/08/23 02:53:28;;;;;;;;;10.33;10.00;;;;;;;;5077326;28;45431;-80
2022/08/23 02:55:54;;;;;;;;;8.00;7.00;;;;;;;;5077358;28;45397;-80
2022/08/23 02:58:19;;;;;;;;;7.67;7.67;;;;;;;;5076141;28;45514;-80
2022/08/23 03:00:48;;;;;;;;;14.00;11.67;;;;;;;;5077276;28;45410;-80
2022/08/23 03:03:13;;;;;;;;;9.00;7.00;;;;;;;;5077473;28;45461;-80
2022/08/23 03:05:38;;;;;;;;;12.67;8.67;;;;;;;;5081318;27;45316;-80
2022/08/23 03:08:04;;;;;;;;;8.00;8.00;;;;;;;;5097678;27;45563;-79
2022/08/23 03:10:29;;;;;;;;;11.00;7.00;;;;;;;;5097521;27;45477;-79
2022/08/23 03:12:55;;;;;;;;;8.33;7.33;;;;;;;;5097752;27;45311;-80
2022/08/23 03:15:20;;;;;;;;;9.33;8.00;;;;;;;;5097864;27;45544;-79
2022/08/23 03:17:45;;;;;;;;;8.67;7.00;;;;;;;;5097094;27;45490;-80
2022/08/23 03:20:10;;;;;;;;;10.67;8.67;;;;;;;;5097476;27;45359;-79
2022/08/23 03:22:36;;;;;;;;;11.00;9.33;;;;;;;;5096557;27;45421;-79
2022/08/23 03:25:02;;;;;;;;;10.00;10.00;;;;;;;;5097660;27;45183;-78
2022/08/23 03:27:30;;;;;;;;;10.00;8.33;;;;;;;;5097237;27;46744;-79
2022/08/23 03:29:55;;;;;;;;;8.00;8.00;;;;;;;;5097244;27;45367;-79
2022/08/23 03:32:20;;;;;;;;;14.00;9.00;;;;;;;;5099014;27;45219;-78
2022/08/23 03:34:45;;;;;;;;;11.00;8.33;;;;;;;;5101119;27;45323;-78
2022/08/23 03:37:11;;;;;;;;;7.67;7.67;;;;;;;;5099781;27;47146;-82
2022/08/23 03:39:36;;;;;;;;;10.33;9.00;;;;;;;;5100723;27;45260;-80
2022/08/23 03:42:01;;;;;;;;;8.67;7.00;;;;;;;;5100690;27;45585;-81
2022/08/23 03:44:27;;;;;;;;;9.00;6.00;;;;;;;;5101068;27;45364;-79
2022/08/23 03:46:52;;;;;;;;;15.00;13.67;;;;;;;;5100814;27;46422;-79
2022/08/23 03:49:18;;;;;;;;;9.67;9.67;;;;;;;;5100595;27;45467;-79
2022/08/23 03:51:43;;;;;;;;;9.67;8.33;;;;;;;;5100853;27;45348;-79
2022/08/23 03:54:08;;;;;;;;;9.33;8.33;;;;;;;;5084563;27;45295;-79
2022/08/23 03:56:35;;;;;;;;;11.67;9.00;;;;;;;;5079707;28;46123;-79
2022/08/23 03:59:03;;;;;;;;;8.00;8.00;;;;;;;;5080231;28;45257;-80
2022/08/23 04:01:28;;;;;;;;;9.00;9.00;;;;;;;;5079922;28;45325;-80
2022/08/23 04:03:53;;;;;;;;;8.33;7.33;;;;;;;;5080300;28;45201;-79
2022/08/23 04:06:19;;;;;;;;;9.00;7.67;;;;;;;;5079743;28;45315;-79
2022/08/23 04:08:45;;;;;;;;;12.67;9.00;;;;;;;;5079507;27;45287;-79
2022/08/23 04:11:12;;;;;;;;;7.00;7.00;;;;;;;;5061556;28;45206;-79
2022/08/23 04:13:38;;;;;;;;;8.67;8.67;;;;;;;;5079968;28;45515;-79
2022/08/23 04:16:04;;;;;;;;;8.67;8.00;;;;;;;;5079369;28;46691;-80
2022/08/23 04:18:30;;;;;;;;;11.67;9.33;;;;;;;;5079637;28;45324;-81
2022/08/23 04:20:57;;;;;;;;;8.33;7.67;;;;;;;;5079826;28;45369;-80
2022/08/23 04:23:23;;;;;;;;;10.00;8.33;;;;;;;;5079857;28;45525;-80
2022/08/23 04:25:48;;;;;;;;;8.67;7.33;;;;;;;;5099065;27;45765;-83
2022/08/23 04:28:14;;;;;;;;;6.00;6.00;;;;;;;;5099972;27;45678;-80
2022/08/23 04:30:39;;;;;;;;;9.67;9.67;;;;;;;;5100066;27;45377;-81
2022/08/23 04:33:04;;;;;;;;;13.33;10.00;;;;;;;;5100233;27;45299;-80
2022/08/23 04:35:29;;;;;;;;;10.33;7.67;;;;;;;;5099987;27;45495;-81
2022/08/23 04:37:55;;;;;;;;;12.67;10.67;;;;;;;;5099875;27;45433;-80
2022/08/23 04:43:04;;;;;;;;;10.33;8.67;;;;;;;;5098501;27;45375;-81
2022/08/23 04:45:31;;;;;;;;;13.00;11.00;;;;;;;;5099564;27;46157;-80
2022/08/23 04:47:56;;;;;;;;;10.33;9.00;;;;;;;;5099587;27;45326;-80
2022/08/23 04:50:22;;;;;;;;;10.00;9.67;;;;;;;;5099788;27;45324;-79
2022/08/23 04:52:47;;;;;;;;;9.33;8.00;;;;;;;;5099781;27;45229;-79
2022/08/23 04:55:13;;;;;;;;;10.33;9.00;;;;;;;;5099639;27;46259;-79
2022/08/23 04:57:41;;;;;;;;;18.33;12.00;;;;;;;;5099356;27;45379;-84
2022/08/23 05:00:07;;;;;;;;;13.00;12.33;;;;;;;;5083816;27;45351;-83
2022/08/23 05:02:32;;;;;;;;;67.00;41.00;;;;;;;;5079215;28;45496;-81
2022/08/23 05:04:57;;;;;;;;;19.00;15.00;;;;;;;;5078791;28;46063;-84
2022/08/23 05:07:22;;;;;;;;;12.33;12.00;;;;;;;;5079015;28;45430;-82
2022/08/23 05:09:48;;;;;;;;;16.67;15.33;;;;;;;;5078929;28;45306;-78
2022/08/23 05:12:13;;;;;;;;;14.00;12.00;;;;;;;;5079048;28;45418;-82
2022/08/23 05:14:38;;;;;;;;;32.67;26.67;;;;;;;;5078315;28;46551;-84
2022/08/23 05:17:04;;;;;;;;;11.67;11.67;;;;;;;;5093546;27;45359;-83
2022/08/23 05:19:29;;;;;;;;;12.33;10.67;;;;;;;;5099209;27;45151;-80
2022/08/23 05:21:54;;;;;;;;;15.67;13.00;;;;;;;;5099344;27;45264;-80
2022/08/23 05:24:19;;;;;;;;;16.67;10.33;;;;;;;;5098970;27;46486;-83
2022/08/23 05:26:46;;;;;;;;;9.33;9.33;;;;;;;;5099290;27;45324;-81
2022/08/23 05:29:11;;;;;;;;;10.33;10.00;;;;;;;;5099204;27;45421;-82
2022/08/23 05:31:37;;;;;;;;;12.00;10.00;;;;;;;;5099416;27;45196;-82
2022/08/23 05:34:02;;;;;;;;;12.33;9.33;;;;;;;;5083470;27;46669;-82
2022/08/23 05:36:27;;;;;;;;;18.00;11.33;;;;;;;;5078531;28;45390;-83
2022/08/23 05:38:52;;;;;;;;;10.00;8.67;;;;;;;;5078757;28;45318;-80
2022/08/23 05:41:18;;;;;;;;;13.00;10.33;;;;;;;;5078574;28;45279;-84
2022/08/23 05:43:44;;;;;;;;;11.00;8.67;;;;;;;;5078294;28;47095;-82
2022/08/23 05:46:11;;;;;;;;;9.33;8.33;;;;;;;;5078230;28;45284;-79
2022/08/23 05:48:37;;;;;;;;;13.33;12.33;;;;;;;;5078438;28;45208;-78
2022/08/23 05:51:08;;;;;;;;;13.00;9.67;;;;;;;;5093161;27;45321;-79
2022/08/23 05:53:34;;;;;;;;;10.00;8.33;;;;;;;;5098326;27;46516;-78
2022/08/23 05:56:07;;;;;;;;;9.00;9.00;;;;;;;;5097579;27;45260;-76
2022/08/23 05:58:32;;;;;;;;;7.67;7.00;;;;;;;;5098655;27;45491;-76
2022/08/23 06:00:58;;;;;;;;;5.67;5.67;;;;;;;;5098619;27;45220;-77
2022/08/23 06:03:23;;;;;;;;;7.00;6.67;;;;;;;;5098469;27;45459;-76
2022/08/23 06:05:48;;;;;;;;;16.67;15.00;;;;;;;;5097474;27;45497;-77
2022/08/23 06:08:13;;;;;;;;;7.00;7.00;;;;;;;;5098624;27;45446;-75
2022/08/23 06:10:38;;;;;;;;;17.00;11.00;;;;;;;;5098616;27;45287;-77
2022/08/23 06:13:04;;;;;;;;;6.00;6.00;;;;;;;;5098314;27;45527;-76
2022/08/23 06:15:30;;;;;;;;;5.00;5.00;;;;;;;;5098367;27;45275;-76
2022/08/23 06:17:55;;;;;;;;;5.00;5.00;;;;;;;;5098331;27;45513;-78
2022/08/23 06:20:20;;;;;;;;;7.33;7.00;;;;;;;;5098382;27;45348;-78
2022/08/23 06:22:46;;;;;;;;;7.00;6.33;;;;;;;;5097367;27;47517;-78
2022/08/23 06:25:11;;;;;;;;;7.00;5.33;;;;;;;;5098182;27;45384;-79
2022/08/23 06:27:36;;;;;;;;;11.67;7.00;;;;;;;;5098261;27;45204;-76
2022/08/23 06:30:02;;;;;;;;;11.33;8.33;;;;;;;;5105873;27;45217;-75
2022/08/23 06:32:27;;;;;;;;;9.67;9.00;;;;;;;;5101395;27;46445;-78
2022/08/23 06:34:52;;;;;;;;;12.33;10.67;;;;;;;;5098315;27;45449;-77
2022/08/23 06:37:17;;;;;;;;;12.67;10.33;;;;;;;;5094926;27;45470;-79
2022/08/23 06:39:43;;;;;;;;;17.00;9.00;;;;;;;;5098249;27;45362;-76
2022/08/23 06:42:12;;;;;;;;;9.67;9.33;;;;;;;;5097556;27;46398;-71
2022/08/23 06:44:37;;;;;;;;;10.00;6.67;;;;;;;;5097777;27;45260;-71
2022/08/23 06:47:03;;;;;;;;;20.00;14.33;;;;;;;;5098071;27;45379;-71
2022/08/23 06:49:29;;;;;;;;;6.00;5.00;;;;;;;;5097047;27;45294;-71
2022/08/23 06:51:55;;;;;;;;;7.00;5.67;;;;;;;;5088956;27;45813;-74
2022/08/23 06:54:25;;;;;;;;;7.00;5.00;;;;;;;;5097373;27;45406;-73
2022/08/23 06:56:50;;;;;;;;;4.00;4.00;;;;;;;;5097571;27;45379;-70
2022/08/23 06:59:16;;;;;;;;;7.33;6.33;;;;;;;;5097867;27;45494;-73
2022/08/23 07:01:44;;;;;;;;;8.33;6.00;;;;;;;;5097438;27;46196;-76
2022/08/23 07:04:10;;;;;;;;;5.33;5.00;;;;;;;;5097660;27;45387;-74
2022/08/23 07:06:36;;;;;;;;;4.00;3.67;;;;;;;;5099491;27;45365;-75
2022/08/23 07:09:02;;;;;;;;;7.00;7.00;;;;;;;;5101384;27;45377;-75
2022/08/23 07:11:31;;;;;;;;;8.00;8.00;;;;;;;;5101006;27;45362;-73
2022/08/23 07:14:00;;;;;;;;;9.33;7.00;;;;;;;;5094149;27;46009;-78
2022/08/23 07:16:31;;;;;;;;;10.00;7.00;;;;;;;;5080500;28;45463;-77
2022/08/23 07:18:56;;;;;;;;;6.33;5.33;;;;;;;;5090267;27;45557;-86
2022/08/23 07:21:21;;;;;;;;;6.67;6.00;;;;;;;;5100935;27;46463;-78
2022/08/23 07:23:46;;;;;;;;;9.33;7.00;;;;;;;;5100929;27;45312;-68
2022/08/23 07:26:13;;;;;;;;;8.00;5.00;;;;;;;;5101260;27;45283;-74
2022/08/23 07:28:38;;;;;;;;;6.00;6.00;;;;;;;;5101046;27;45398;-67
2022/08/23 07:31:07;;;;;;;;;5.00;5.00;;;;;;;;5100553;27;45310;-70
2022/08/23 07:33:32;;;;;;;;;7.00;5.33;;;;;;;;5100907;27;45290;-68
2022/08/23 07:35:57;;;;;;;;;6.67;6.33;;;;;;;;5100988;27;45406;-69
2022/08/23 07:38:23;;;;;;;;;16.67;14.67;;;;;;;;5100919;27;45313;-72
2022/08/23 07:40:48;;;;;;;;;5.00;5.00;;;;;;;;5100383;27;45385;-76
2022/08/23 07:43:13;;;;;;;;;7.33;6.67;;;;;;;;5100355;27;45430;-76
2022/08/23 07:45:39;;;;;;;;;9.33;7.33;;;;;;;;5100800;27;45235;-73
2022/08/23 07:48:05;;;;;;;;;8.00;7.33;;;;;;;;5100879;27;45328;-75
2022/08/23 07:50:30;;;;;;;;;6.00;6.00;;;;;;;;5100394;27;46160;-73
2022/08/23 07:52:55;;;;;;;;;6.33;6.00;;;;;;;;5107945;27;45177;-77
2022/08/23 07:55:21;;;;;;;;;7.33;5.33;;;;;;;;5104306;27;45297;-78
2022/08/23 07:57:46;;;;;;;;;8.00;6.00;;;;;;;;5100770;27;45453;-79
2022/08/23 08:00:12;;;;;;;;;4.33;4.33;;;;;;;;5099148;27;45957;-79
2022/08/23 08:02:38;;;;;;;;;5.33;5.00;;;;;;;;5100597;27;45364;-75
2022/08/23 08:05:03;;;;;;;;;4.50;4.00;;;;;;;;5100584;27;45360;-77
2022/08/23 08:07:28;;;;;;;;;4.00;4.00;;;;;;;;5100657;27;45299;-79
2022/08/23 08:09:53;;;;;;;;;4.33;4.33;;;;;;;;5100283;27;45351;-76
2022/08/23 08:12:19;;;;;;;;;6.00;4.33;;;;;;;;5100352;27;45306;-78
2022/08/23 08:14:44;;;;;;;;;4.33;4.33;;;;;;;;5099249;27;45329;-78
2022/08/23 08:17:10;;;;;;;;;4.00;4.00;;;;;;;;5099776;27;45501;-79
2022/08/23 08:19:35;;;;;;;;;3.67;3.00;;;;;;;;5099832;27;47172;-78
2022/08/23 08:22:01;;;;;;;;;2.33;2.00;;;;;;;;5099592;27;45340;-76
2022/08/23 08:24:26;;;;;;;;;4.33;4.00;;;;;;;;5100231;27;45303;-76
2022/08/23 08:26:51;;;;;;;;;2.00;2.00;;;;;;;;5100349;27;45353;-77
2022/08/23 08:29:16;;;;;;;;;2.33;2.33;;;;;;;;5098693;27;46519;-78
2022/08/23 08:31:42;;;;;;;;;2.00;2.00;;;;;;;;5099756;27;45514;-80
2022/08/23 08:34:10;;;;;;;;;2.00;2.00;;;;;;;;5099984;27;45413;-80
2022/08/23 08:36:38;;;;;;;;;2.00;2.00;;;;;;;;5100325;27;45194;-80
2022/08/23 08:39:05;;;;;;;;;2.67;2.33;;;;;;;;5099613;27;46705;-74
2022/08/23 08:41:42;;;;;;;;;2.00;2.00;;;;;;;;5099540;27;45376;-76
2022/08/23 08:44:21;;;;;;;;;3.00;3.00;;;;;;;;5099635;27;45365;-78
2022/08/23 08:46:48;;;;;;;;;4.67;4.33;;;;;;;;5100096;27;45280;-76
2022/08/23 08:49:34;;;;;;;;;1.67;0.00;;;;;;;;5099680;27;45332;-77
2022/08/23 08:52:04;;;;;;;;;1.67;1.67;;;;;;;;5098818;27;45301;-79
2022/08/23 08:54:30;;;;;;;;;8.67;7.00;;;;;;;;5099618;27;45332;-78
2022/08/23 08:56:57;;;;;;;;;3.00;3.00;;;;;;;;5099946;27;45417;-78
2022/08/23 08:59:25;;;;;;;;;6.33;3.33;;;;;;;;5099031;27;46749;-78
2022/08/23 09:01:51;;;;;;;;;3.00;3.00;;;;;;;;5098510;27;45386;-78
2022/08/23 09:04:17;;;;;;;;;3.00;2.00;;;;;;;;5099625;27;45244;-76
2022/08/23 09:07:03;;;;;;;;;2.00;2.00;;;;;;;;5099576;27;45253;-78
2022/08/23 09:09:53;;;;;;;;;3.33;2.33;;;;;;;;5015673;28;47083;-79
2022/08/23 09:12:36;;;;;;;;;5.00;5.00;;;;;;;;5016329;28;45282;-78
2022/08/23 09:15:25;;;;;;;;;2.33;2.33;;;;;;;;5016162;28;46367;-78
2022/08/23 09:17:50;;;;;;;;;4.67;4.67;;;;;;;;4956264;28;45700;-78
2022/08/23 09:20:18;;;;;;;;;2.00;2.00;;;;;;;;4957062;28;45430;-75
2022/08/23 09:22:45;;;;;;;;;3.67;3.00;;;;;;;;4955561;28;45451;-76
2022/08/23 09:25:12;;;;;;;;;3.00;3.00;;;;;;;;4956514;28;45390;-76
2022/08/23 09:27:38;;;;;;;;;4.00;4.00;;;;;;;;4957416;28;45383;-77
2022/08/23 09:30:04;;;;;;;;;5.67;2.33;;;;;;;;4956570;28;46492;-77
2022/08/23 09:32:29;;;;;;;;;5.00;5.00;;;;;;;;4957037;28;45446;-77
2022/08/23 09:35:08;;;;;;;;;2.33;2.33;;;;;;;;4957003;28;45386;-78
2022/08/23 09:37:48;;;;;;;;;2.00;2.00;;;;;;;;4957143;28;45291;-75
2022/08/23 09:40:13;;;;;;;;;4.00;4.00;;;;;;;;4956418;28;46449;-76
2022/08/23 09:42:39;;;;;;;;;3.67;2.67;;;;;;;;4956693;28;45395;-80
2022/08/23 09:45:23;;;;;;;;;3.00;3.00;;;;;;;;4939339;28;45506;-84
2022/08/23 09:47:48;;;;;;;;;2.67;2.67;;;;;;;;4976497;28;45399;-75
2022/08/23 09:50:35;;;;;;;;;2.00;2.00;;;;;;;;4976165;28;46559;-78
2022/08/23 09:53:06;;;;;;;;;2.00;2.00;;;;;;;;4960044;28;45385;-77
2022/08/23 09:55:34;;;;;;;;;2.00;2.00;;;;;;;;5055404;27;45547;-78
2022/08/23 09:58:03;;;;;;;;;2.33;1.33;;;;;;;;5078233;28;45438;-78
2022/08/23 10:00:35;;;;;;;;;2.67;1.00;;;;;;;;5077525;28;46652;-75
2022/08/23 10:03:27;;;;;;;;;1.33;1.33;;;;;;;;5077984;28;45386;-74
2022/08/23 10:05:57;;;;;;;;;1.33;1.33;;;;;;;;5074375;27;45376;-70
2022/08/23 10:08:27;;;;;;;;;1.00;1.00;;;;;;;;5078075;27;45312;-76
2022/08/23 10:10:55;;;;;;;;;0.67;0.67;;;;;;;;5077802;28;45378;-74
2022/08/23 10:13:22;;;;;;;;;1.33;1.33;;;;;;;;5077861;28;45281;-73
2022/08/23 10:15:54;;;;;;;;;2.33;2.33;;;;;;;;5075210;27;45693;-76
2022/08/23 10:18:29;;;;;;;;;2.67;1.33;;;;;;;;5078327;28;45440;-73
2022/08/23 10:20:54;;;;;;;;;1.67;1.67;;;;;;;;5077525;28;46592;-75
2022/08/23 10:23:19;;;;;;;;;2.33;1.00;;;;;;;;5077768;28;45375;-77
2022/08/23 10:25:49;;;;;;;;;1.33;1.33;;;;;;;;5077929;28;45454;-77
2022/08/23 10:31:34;;;;;;;;;2.00;2.00;;;;;;;;5077408;28;45330;-76
2022/08/23 10:34:00;;;;;;;;;2.33;1.00;;;;;;;;5072681;28;45356;-76
2022/08/23 10:36:30;;;;;;;;;2.00;1.33;;;;;;;;5077619;28;45367;-74
2022/08/23 10:39:15;;;;;;;;;1.00;0.00;;;;;;;;5077854;28;45476;-75
2022/08/23 10:41:43;;;;;;;;;1.00;1.00;;;;;;;;5079121;28;46593;-75
2022/08/23 10:44:21;;;;;;;;;1.67;1.67;;;;;;;;5080965;28;45373;-72
2022/08/23 10:46:52;;;;;;;;;2.00;2.00;;;;;;;;5081121;28;45414;-73
2022/08/23 10:49:17;;;;;;;;;1.00;1.00;;;;;;;;5081337;28;45419;-74
2022/08/23 10:51:45;;;;;;;;;0.67;0.67;;;;;;;;5079954;28;45376;-74
2022/08/23 10:54:14;;;;;;;;;2.00;2.00;;;;;;;;5080923;28;45254;-74
2022/08/23 10:56:40;;;;;;;;;1.00;1.00;;;;;;;;5081032;28;45364;-74
2022/08/23 10:59:13;;;;;;;;;2.00;0.33;;;;;;;;5081194;28;45158;-74
2022/08/23 11:01:56;;;;;;;;;1.00;1.00;;;;;;;;5080620;28;46950;-75
2022/08/23 11:04:44;;;;;;;;;3.33;1.67;;;;;;;;5080812;28;45402;-76
2022/08/23 11:07:27;;;;;;;;;1.00;1.00;;;;;;;;5069703;28;45518;-75
2022/08/23 11:09:54;;;;;;;;;3.00;2.33;;;;;;;;5060735;28;45374;-76
2022/08/23 11:12:30;;;;;;;;;0.67;0.67;;;;;;;;5060278;28;46368;-76
2022/08/23 11:14:56;;;;;;;;;1.00;1.00;;;;;;;;5060262;28;45427;-77
2022/08/23 11:17:42;;;;;;;;;1.00;0.33;;;;;;;;5075956;28;45216;-75
2022/08/23 11:20:10;;;;;;;;;1.00;1.00;;;;;;;;5066219;28;46216;-75
2022/08/23 11:22:54;;;;;;;;;1.00;1.00;;;;;;;;5079560;27;45336;-75
2022/08/23 11:25:19;;;;;;;;;1.67;1.67;;;;;;;;5080544;28;45637;-75
2022/08/23 11:27:44;;;;;;;;;0.67;0.33;;;;;;;;5086383;27;45662;-74
2022/08/23 11:30:28;;;;;;;;;1.00;1.00;;;;;;;;5101123;27;45320;-75
2022/08/23 11:32:54;;;;;;;;;2.00;2.00;;;;;;;;5100942;27;45522;-75
2022/08/23 11:35:36;;;;;;;;;3.00;1.67;;;;;;;;5100794;27;45461;-74
2022/08/23 11:38:03;;;;;;;;;1.00;1.00;;;;;;;;5100923;27;45208;-74
2022/08/23 11:41:03;;;;;;;;;2.00;0.00;;;;;;;;5100229;27;45397;-74
2022/08/23 11:43:34;;;;;;;;;3.00;2.33;;;;;;;;5017474;28;45504;-74
2022/08/23 11:46:33;;;;;;;;;2.00;2.00;;;;;;;;5017548;28;45333;-75
2022/08/23 11:49:10;;;;;;;;;2.00;2.00;;;;;;;;4958696;28;45265;-75
2022/08/23 11:51:51;;;;;;;;;2.67;2.00;;;;;;;;4958826;28;45487;-74
2022/08/23 11:54:29;;;;;;;;;2.00;2.00;;;;;;;;4957615;28;47104;-75
2022/08/23 11:57:14;;;;;;;;;1.33;1.33;;;;;;;;4953438;28;45360;-75
2022/08/23 11:59:45;;;;;;;;;2.67;2.67;;;;;;;;4939269;28;45461;-76
2022/08/23 12:02:30;;;;;;;;;1.67;1.00;;;;;;;;4939146;28;45458;-76
2022/08/23 12:04:57;;;;;;;;;2.00;2.00;;;;;;;;4938824;28;46098;-75
2022/08/23 12:07:40;;;;;;;;;1.00;1.00;;;;;;;;4939084;28;45425;-75
2022/08/23 12:10:06;;;;;;;;;3.00;3.00;;;;;;;;4939288;28;45991;-74
2022/08/23 12:12:32;;;;;;;;;2.00;2.00;;;;;;;;4938761;28;45610;-74
2022/08/23 12:14:59;;;;;;;;;3.67;2.00;;;;;;;;4957975;28;46277;-74
2022/08/23 12:17:27;;;;;;;;;3.67;2.67;;;;;;;;4966834;28;45502;-75
2022/08/23 12:19:53;;;;;;;;;2.67;2.00;;;;;;;;4977707;28;45373;-75
2022/08/23 12:22:40;;;;;;;;;3.00;3.00;;;;;;;;4978001;28;45342;-74
2022/08/23 12:25:06;;;;;;;;;2.00;2.00;;;;;;;;5050097;28;54457;-74
2022/08/23 12:27:41;;;;;;;;;3.00;3.00;;;;;;;;5079436;28;45406;-74
2022/08/23 12:30:09;;;;;;;;;1.00;1.00;;;;;;;;5078353;28;45358;-74
2022/08/23 12:32:43;;;;;;;;;2.00;2.00;;;;;;;;5079798;28;45341;-75
2022/08/23 12:35:08;;;;;;;;;4.00;4.00;;;;;;;;5079346;28;45494;-74
2022/08/23 12:37:42;;;;;;;;;2.33;2.33;;;;;;;;5079264;28;45440;-75
2022/08/23 12:40:12;;;;;;;;;3.00;1.33;;;;;;;;5079478;28;45377;-77
2022/08/23 12:42:38;;;;;;;;;2.00;1.00;;;;;;;;5079536;28;45474;-74
2022/08/23 12:45:11;;;;;;;;;3.00;1.00;;;;;;;;5079163;28;46034;-74
2022/08/23 12:47:36;;;;;;;;;1.00;1.00;;;;;;;;5078180;28;45250;-74
2022/08/23 12:50:14;;;;;;;;;3.67;2.33;;;;;;;;5079419;28;45337;-75
2022/08/23 12:52:40;;;;;;;;;3.00;1.33;;;;;;;;5079518;28;45300;-74
2022/08/23 12:55:15;;;;;;;;;2.00;2.00;;;;;;;;5078959;28;45684;-74
2022/08/23 12:57:42;;;;;;;;;1.00;1.00;;;;;;;;5078912;28;45339;-74
2022/08/23 13:00:13;;;;;;;;;1.67;1.67;;;;;;;;5079013;28;45237;-74
2022/08/23 13:02:40;;;;;;;;;1.00;1.00;;;;;;;;5078229;28;45323;-75
2022/08/23 13:05:24;;;;;;;;;3.00;3.00;;;;;;;;5078420;28;45365;-75
2022/08/23 13:07:50;;;;;;;;;1.67;1.00;;;;;;;;5078845;28;45344;-76
2022/08/23 13:10:15;;;;;;;;;2.67;2.00;;;;;;;;5079006;28;45484;-74
2022/08/23 13:12:41;;;;;;;;;1.00;1.00;;;;;;;;5079097;28;45350;-75
2022/08/23 13:15:06;;;;;;;;;9.33;6.67;;;;;;;;5078673;28;46093;-74
2022/08/23 13:17:38;;;;;;;;;1.00;1.00;;;;;;;;5095835;27;45327;-75
2022/08/23 13:20:06;;;;;;;;;1.00;1.00;;;;;;;;5098075;27;45414;-74
2022/08/23 13:22:36;;;;;;;;;2.33;1.00;;;;;;;;5099114;27;45478;-75
2022/08/23 13:25:13;;;;;;;;;1.67;1.67;;;;;;;;5098803;27;46664;-75
2022/08/23 13:27:44;;;;;;;;;2.00;2.00;;;;;;;;5098975;27;45452;-74
2022/08/23 13:30:09;;;;;;;;;3.00;3.00;;;;;;;;5098960;27;45676;-74
2022/08/23 13:32:42;;;;;;;;;1.67;1.67;;;;;;;;5099040;27;45283;-75
2022/08/23 13:35:21;;;;;;;;;1.33;1.33;;;;;;;;5098943;27;47214;-76
2022/08/23 13:37:47;;;;;;;;;2.00;2.00;;;;;;;;5097748;27;45407;-76
2022/08/23 13:40:16;;;;;;;;;0.33;0.33;;;;;;;;5098939;27;45214;-75
2022/08/23 13:42:47;;;;;;;;;1.00;1.00;;;;;;;;5096795;27;45513;-74
2022/08/23 13:45:14;;;;;;;;;1.67;1.67;;;;;;;;5078214;27;46198;-75
2022/08/23 13:47:45;;;;;;;;;0.00;0.00;;;;;;;;5084593;27;45478;-74
2022/08/23 13:50:14;;;;;;;;;3.00;1.67;;;;;;;;5098902;27;45260;-76
2022/08/23 13:52:39;;;;;;;;;2.00;2.00;;;;;;;;5098805;27;45457;-76
2022/08/23 13:55:05;;;;;;;;;0.67;0.67;;;;;;;;5098415;27;45273;-75
2022/08/23 13:57:35;;;;;;;;;2.00;2.00;;;;;;;;5098237;27;45353;-75
2022/08/23 14:00:01;;;;;;;;;1.67;1.67;;;;;;;;5098233;27;45457;-75
2022/08/23 14:02:28;;;;;;;;;1.00;1.00;;;;;;;;5098641;27;45557;-74
2022/08/23 14:04:53;;;;;;;;;1.00;1.00;;;;;;;;5098205;27;45437;-75
2022/08/23 14:07:18;;;;;;;;;2.00;1.00;;;;;;;;5098231;27;45294;-76
2022/08/23 14:09:44;;;;;;;;;4.00;2.00;;;;;;;;5098569;27;45433;-75
2022/08/23 14:12:14;;;;;;;;;2.00;1.00;;;;;;;;5098457;27;45265;-75
2022/08/23 14:14:40;;;;;;;;;2.00;2.00;;;;;;;;5098161;27;46522;-76
2022/08/23 14:17:05;;;;;;;;;4.67;4.67;;;;;;;;5096652;27;45867;-76
2022/08/23 14:19:30;;;;;;;;;3.00;2.00;;;;;;;;5098297;27;45167;-75
2022/08/23 14:21:56;;;;;;;;;5.67;5.67;;;;;;;;5098367;27;45483;-75
2022/08/23 14:24:21;;;;;;;;;2.33;2.00;;;;;;;;5097908;27;46443;-75
2022/08/23 14:26:46;;;;;;;;;3.67;1.67;;;;;;;;5098270;27;45356;-77
2022/08/23 14:29:12;;;;;;;;;4.00;2.00;;;;;;;;5098227;27;45335;-76
2022/08/23 14:31:37;;;;;;;;;2.33;1.00;;;;;;;;5097946;27;45452;-74
2022/08/23 14:34:02;;;;;;;;;3.00;2.00;;;;;;;;5096894;27;46162;-74
2022/08/23 14:36:28;;;;;;;;;3.00;3.00;;;;;;;;5090266;27;45368;-74
2022/08/23 14:38:53;;;;;;;;;4.00;4.00;;;;;;;;5077815;28;45348;-74
2022/08/23 14:41:20;;;;;;;;;3.00;3.00;;;;;;;;5084291;27;45486;-73
2022/08/23 14:43:46;;;;;;;;;3.00;3.00;;;;;;;;5106894;27;45340;-74
2022/08/23 14:46:11;;;;;;;;;3.00;2.00;;;;;;;;5098184;27;45357;-78
2022/08/23 14:48:37;;;;;;;;;9.67;8.33;;;;;;;;5097970;27;45433;-76
2022/08/23 14:51:02;;;;;;;;;4.33;4.33;;;;;;;;5098366;27;45330;-85
2022/08/23 14:53:29;;;;;;;;;2.00;2.00;;;;;;;;5097936;27;46439;-75
2022/08/23 14:55:54;;;;;;;;;3.67;3.00;;;;;;;;5097774;27;46185;-77